Terminal Aerodrome Forecast
Issued by NWS Wakefield, VA

Home | Current Version | Previous Version | Text Only | Print | Product List | Glossary On
Versions: 1 2 3 4 5 6 7 8 9 10 11 12 13 14 15
000
FTUS41 KAKQ 161100 RRA
TAFECG
TAF
KECG 161142Z 1612/1712 22005KT P6SM BKN025
     FM161400 29006KT P6SM BKN040
     FM161600 36008KT P6SM BKN050
     FM162100 06005KT P6SM SCT050 BKN100=

USA.gov is the U.S. government's official web portal to all federal, state and local government web resources and services.